createdAt,value
2018-07-08T00:02:56.494Z,1.97
2018-07-08T00:07:59.686Z,2.50
2018-07-08T00:13:02.892Z,1.83
2018-07-08T00:18:06.106Z,2.17
2018-07-08T00:23:09.241Z,1.87
2018-07-08T00:28:12.376Z,1.93
2018-07-08T00:33:15.520Z,2.10
2018-07-08T00:38:19.278Z,1.90
2018-07-08T00:43:22.384Z,1.67
2018-07-08T00:48:25.531Z,2.47
2018-07-08T00:53:28.731Z,2.67
2018-07-08T00:58:32.707Z,2.23
2018-07-08T01:03:35.895Z,2.13
2018-07-08T01:08:39.129Z,2.30
2018-07-08T01:13:42.170Z,2.37
2018-07-08T01:18:45.318Z,2.40
2018-07-08T01:23:48.397Z,2.40
2018-07-08T01:28:51.482Z,2.27
2018-07-08T01:33:54.645Z,2.10
2018-07-08T01:38:57.808Z,2.37
2018-07-08T01:44:00.957Z,2.43
2018-07-08T01:49:04.244Z,2.50
2018-07-08T01:54:07.408Z,2.67
2018-07-08T01:59:10.862Z,3.00
2018-07-08T02:04:14.051Z,2.30
2018-07-08T02:09:17.273Z,2.20
2018-07-08T02:14:21.471Z,2.33
2018-07-08T02:19:24.851Z,2.27
2018-07-08T02:24:28.864Z,2.63
2018-07-08T02:29:32.715Z,2.87
2018-07-08T02:34:35.956Z,2.57
2018-07-08T02:39:39.102Z,2.70
2018-07-08T02:44:42.576Z,2.77
2018-07-08T02:49:46.120Z,2.90
2018-07-08T02:54:49.222Z,2.90
2018-07-08T02:59:52.334Z,2.60
2018-07-08T03:04:55.481Z,2.30
2018-07-08T03:09:58.670Z,2.63
2018-07-08T03:15:01.838Z,3.03
2018-07-08T03:20:05.005Z,3.43
2018-07-08T03:25:08.093Z,2.50
2018-07-08T03:30:12.056Z,2.87
2018-07-08T03:35:15.163Z,2.60
2018-07-08T03:40:18.238Z,2.90
2018-07-08T03:45:21.356Z,2.37
2018-07-08T03:50:24.498Z,2.73
2018-07-08T03:55:27.944Z,3.27
2018-07-08T04:00:31.112Z,2.67
2018-07-08T04:05:34.889Z,2.57
2018-07-08T04:10:37.999Z,3.10
2018-07-08T04:15:41.206Z,2.30
2018-07-08T04:20:44.339Z,2.57
2018-07-08T04:25:47.466Z,2.97
2018-07-08T04:30:50.615Z,2.93
2018-07-08T04:35:53.754Z,2.90
2018-07-08T04:40:56.905Z,2.73
2018-07-08T04:46:00.152Z,3.03
2018-07-08T04:51:03.501Z,3.20
2018-07-08T04:56:06.810Z,2.90
2018-07-08T05:01:09.952Z,3.10
2018-07-08T05:06:13.161Z,2.43
2018-07-08T05:11:16.324Z,2.73
2018-07-08T05:16:19.614Z,2.50
2018-07-08T05:21:22.835Z,2.30
2018-07-08T05:26:26.010Z,2.43
2018-07-08T05:31:29.264Z,2.67
2018-07-08T05:36:33.512Z,2.80
2018-07-08T05:41:37.227Z,2.30
2018-07-08T05:46:40.443Z,3.10
2018-07-08T05:51:43.588Z,2.43
2018-07-08T05:56:46.722Z,2.60
2018-07-08T06:01:49.911Z,3.23
2018-07-08T06:06:53.032Z,2.50
2018-07-08T06:11:56.192Z,2.97
2018-07-08T06:16:59.531Z,2.83
2018-07-08T06:22:02.644Z,2.87
2018-07-08T06:27:05.833Z,3.20
2018-07-08T06:32:08.934Z,3.23
2018-07-08T06:37:12.038Z,2.63
2018-07-08T06:42:15.501Z,3.00
2018-07-08T06:47:18.758Z,3.27
2018-07-08T06:52:22.046Z,3.30
2018-07-08T06:57:25.262Z,3.63
2018-07-08T07:02:28.473Z,2.90
2018-07-08T07:07:31.627Z,3.30
2018-07-08T07:12:34.743Z,3.70
2018-07-08T07:17:37.939Z,4.60
2018-07-08T07:22:41.042Z,5.60
2018-07-08T07:27:44.193Z,5.00
2018-07-08T07:32:47.316Z,5.87
2018-07-08T07:37:50.510Z,4.93
2018-07-08T07:42:53.664Z,4.40
2018-07-08T07:47:58.454Z,5.93
2018-07-08T07:53:01.605Z,7.30
2018-07-08T07:58:04.778Z,7.00
2018-07-08T08:03:07.976Z,6.67
2018-07-08T08:08:11.159Z,5.97
2018-07-08T08:13:14.277Z,6.43
2018-07-08T08:18:17.403Z,6.07
2018-07-08T08:23:20.573Z,6.40
2018-07-08T08:28:23.707Z,6.13
2018-07-08T08:33:27.863Z,6.07
2018-07-08T08:38:31.135Z,5.87
2018-07-08T08:43:34.350Z,5.33
2018-07-08T08:48:38.535Z,5.40
2018-07-08T08:53:41.594Z,6.30
2018-07-08T08:58:44.751Z,5.97
2018-07-08T09:03:47.938Z,5.40
2018-07-08T09:08:51.040Z,5.80
2018-07-08T09:13:54.786Z,5.43
2018-07-08T09:18:57.994Z,5.20
2018-07-08T09:24:01.323Z,5.20
2018-07-08T09:29:04.506Z,5.13
2018-07-08T09:34:07.660Z,4.97
2018-07-08T09:39:10.890Z,4.80
2018-07-08T09:44:13.912Z,5.17
2018-07-08T09:49:17.076Z,5.97
2018-07-08T09:54:20.209Z,5.60
2018-07-08T10:05:11.213Z,5.13
2018-07-08T10:10:14.342Z,5.00
2018-07-08T10:15:17.619Z,5.57
2018-07-08T10:20:20.766Z,6.10
2018-07-08T10:25:23.977Z,5.27
2018-07-08T10:30:27.212Z,6.70
2018-07-08T10:35:41.706Z,5.97
2018-07-08T10:40:44.941Z,6.50
2018-07-08T10:45:48.066Z,5.87
2018-07-08T10:50:51.224Z,5.90
2018-07-08T10:55:54.537Z,6.97
2018-07-08T11:00:58.443Z,6.07
2018-07-08T11:06:01.838Z,6.50
2018-07-08T11:11:05.376Z,5.63
2018-07-08T11:16:08.605Z,6.12
2018-07-08T11:21:11.835Z,5.27
2018-07-08T11:26:14.949Z,5.50
2018-07-08T11:31:18.113Z,5.57
2018-07-08T11:36:21.295Z,5.70
2018-07-08T11:41:24.414Z,6.00
2018-07-08T11:46:27.682Z,5.17
2018-07-08T11:51:30.830Z,5.50
2018-07-08T11:56:34.036Z,5.13
2018-07-08T12:01:37.206Z,5.10
2018-07-08T12:06:40.295Z,5.20
2018-07-08T12:11:43.492Z,5.90
2018-07-08T12:16:46.690Z,5.43
2018-07-08T12:21:49.820Z,5.57
2018-07-08T12:26:52.973Z,5.03
2018-07-08T12:31:56.072Z,5.03
2018-07-08T12:36:59.289Z,5.60
2018-07-08T12:42:02.554Z,5.03
2018-07-08T12:47:05.705Z,5.70
2018-07-08T12:52:08.809Z,5.47
2018-07-08T12:57:11.964Z,5.90
2018-07-08T13:02:15.060Z,5.70
2018-07-08T13:07:18.206Z,5.60
2018-07-08T13:12:21.374Z,4.93
2018-07-08T13:17:25.601Z,5.17
2018-07-08T13:22:28.969Z,5.03
2018-07-08T13:27:32.306Z,5.30
2018-07-08T13:32:35.560Z,5.70
2018-07-08T13:37:38.736Z,5.20
2018-07-08T13:42:41.844Z,5.40
2018-07-08T13:47:45.011Z,5.67
2018-07-08T13:52:48.673Z,5.20
2018-07-08T13:57:51.839Z,4.97
2018-07-08T14:02:55.108Z,5.03
2018-07-08T14:08:00.097Z,5.57
2018-07-08T14:13:03.380Z,4.57
2018-07-08T14:18:06.570Z,5.20
2018-07-08T14:23:09.757Z,4.53
2018-07-08T14:28:13.569Z,5.00
2018-07-08T14:33:17.161Z,4.83
2018-07-08T14:38:20.383Z,4.60
2018-07-08T14:43:23.520Z,4.70
2018-07-08T14:48:28.063Z,4.77
2018-07-08T14:53:32.472Z,4.97
2018-07-08T14:58:35.863Z,4.50
2018-07-08T15:03:39.213Z,4.83
2018-07-08T15:08:42.472Z,4.80
2018-07-08T15:13:45.637Z,4.40
2018-07-08T15:18:49.563Z,4.40
2018-07-08T15:23:53.272Z,4.33
2018-07-08T15:28:56.585Z,4.33
2018-07-08T15:33:59.970Z,5.40
2018-07-08T15:39:04.562Z,4.40
2018-07-08T15:44:07.766Z,4.17
2018-07-08T15:49:12.071Z,4.43
2018-07-08T15:54:15.294Z,4.77
2018-07-08T15:59:18.906Z,4.63
2018-07-08T16:04:22.107Z,4.85
2018-07-08T16:09:25.284Z,4.15
2018-07-08T16:14:28.674Z,4.20
2018-07-08T16:19:31.951Z,5.00
2018-07-08T16:24:35.214Z,3.87
2018-07-08T16:29:38.434Z,4.27
2018-07-08T16:34:41.921Z,4.33
2018-07-08T16:39:45.141Z,4.10
2018-07-08T16:44:48.323Z,3.80
2018-07-08T16:49:51.539Z,4.37
2018-07-08T16:54:54.759Z,3.90
2018-07-08T16:59:58.127Z,3.83
2018-07-08T17:05:02.149Z,3.70
2018-07-08T17:10:05.624Z,3.67
2018-07-08T17:15:08.927Z,3.70
2018-07-08T17:20:12.103Z,3.87
2018-07-08T17:25:15.285Z,3.80
2018-07-08T17:30:18.403Z,3.23
2018-07-08T17:35:22.116Z,3.00
2018-07-08T17:40:25.330Z,3.40
2018-07-08T17:45:28.659Z,3.23
2018-07-08T17:50:31.935Z,3.03
2018-07-08T17:55:35.140Z,3.90
2018-07-08T18:00:38.312Z,3.40
2018-07-08T18:05:45.505Z,3.10
2018-07-08T18:10:49.327Z,3.40
2018-07-08T18:15:52.790Z,3.57
2018-07-08T18:20:56.111Z,3.20
2018-07-08T18:25:59.598Z,3.33
2018-07-08T18:31:02.917Z,3.20
2018-07-08T18:36:06.439Z,3.33
2018-07-08T18:41:09.682Z,3.70
2018-07-08T18:46:13.006Z,3.90
2018-07-08T18:51:16.693Z,3.37
2018-07-08T18:56:21.149Z,3.37
2018-07-08T19:01:24.343Z,3.67
2018-07-08T19:06:28.117Z,3.97
2018-07-08T19:11:34.016Z,3.50
2018-07-08T19:16:38.859Z,3.27
2018-07-08T19:21:50.174Z,3.30
2018-07-08T19:26:57.763Z,3.13
2018-07-08T19:32:02.618Z,3.63
2018-07-08T19:37:06.764Z,3.70
2018-07-08T19:42:11.259Z,3.83
2018-07-08T19:47:14.447Z,3.10
2018-07-08T19:52:18.225Z,3.27
2018-07-08T19:57:22.177Z,3.47
2018-07-08T20:02:25.789Z,3.27
2018-07-08T20:07:30.924Z,3.00
2018-07-08T20:12:34.304Z,3.37
2018-07-08T20:17:40.694Z,3.60
2018-07-08T20:22:45.225Z,3.50
2018-07-08T20:27:49.130Z,6.13
2018-07-08T20:32:53.176Z,4.60
2018-07-08T20:37:57.984Z,4.20
2018-07-08T20:43:01.611Z,3.80
2018-07-08T20:48:05.186Z,3.53
2018-07-08T20:53:08.526Z,3.60
2018-07-08T20:58:12.352Z,3.60
2018-07-08T21:03:16.865Z,3.53
2018-07-08T21:08:20.654Z,3.43
2018-07-08T21:13:23.869Z,3.20
2018-07-08T21:18:27.302Z,3.67
2018-07-08T21:23:32.532Z,3.73
2018-07-08T21:28:35.794Z,3.70
2018-07-08T21:33:38.983Z,3.57
2018-07-08T21:38:45.015Z,3.57
2018-07-08T21:43:48.151Z,3.47
